Time;durP1;ratioP1;P1;durP2;ratioP2;P2;SDS_P1;SDS_P2;PMS_P1;PMS_P2;Temp;Humidity;BMP_temperature;BMP_pressure;BME280_temperature;BME280_humidity;BME280_pressure;Samples;Min_cycle;Max_cycle;Signal;HPM_P1;HPM_P2
2022/07/26 00:00:13;;;;;;;5.22;4.83;;;;;;;17.83;95.19;98159.14;2052446;86;20935;-83
2022/07/26 00:03:16;;;;;;;5.42;4.87;;;;;;;17.82;95.64;98149.59;2052500;85;20999;-83
2022/07/26 00:06:16;;;;;;;5.50;4.75;;;;;;;17.80;94.38;98152.48;2067003;86;21089;-83
2022/07/26 00:09:17;;;;;;;5.37;4.87;;;;;;;17.78;95.80;98160.39;2066842;85;21010;-83
2022/07/26 00:12:17;;;;;;;5.55;5.15;;;;;;;17.80;94.96;98159.11;2071743;85;21038;-83
2022/07/26 00:15:18;;;;;;;5.40;4.83;;;;;;;17.86;96.26;98158.69;2078118;85;20935;-83
2022/07/26 00:18:19;;;;;;;5.28;4.87;;;;;;;17.95;96.25;98162.54;2052028;86;21039;-83
2022/07/26 00:21:19;;;;;;;5.62;5.20;;;;;;;17.99;96.27;98163.66;2066316;85;21573;-83
2022/07/26 00:24:20;;;;;;;4.50;4.17;;;;;;;18.02;95.87;98169.02;2063801;86;20974;-83
2022/07/26 00:27:21;;;;;;;6.72;5.50;;;;;;;18.05;95.91;98161.91;2074874;85;20986;-82
2022/07/26 00:30:22;;;;;;;5.03;4.62;;;;;;;18.07;95.40;98151.86;2064970;85;21018;-83
2022/07/26 00:33:22;;;;;;;6.25;5.28;;;;;;;18.09;95.86;98149.77;2077831;85;21042;-83
2022/07/26 00:36:23;;;;;;;5.25;4.87;;;;;;;18.05;95.65;98149.98;2051751;86;20974;-82
2022/07/26 00:39:24;;;;;;;5.28;4.87;;;;;;;18.01;95.81;98144.87;2070952;85;21015;-83
2022/07/26 00:42:25;;;;;;;5.90;4.95;;;;;;;18.01;95.74;98143.02;2059892;85;20962;-84
2022/07/26 00:45:25;;;;;;;5.53;4.90;;;;;;;17.99;96.32;98143.79;2053725;85;20966;-84
2022/07/26 00:48:26;;;;;;;5.25;4.80;;;;;;;17.99;96.62;98142.98;2052041;86;21049;-84
2022/07/26 00:51:27;;;;;;;5.65;4.87;;;;;;;18.02;96.46;98147.30;2066225;86;20989;-84
2022/07/26 00:54:27;;;;;;;6.08;4.95;;;;;;;18.07;96.92;98146.04;2054645;86;20970;-85
2022/07/26 00:57:28;;;;;;;5.92;5.42;;;;;;;18.11;97.18;98137.11;2055821;86;21070;-83
2022/07/26 01:00:29;;;;;;;5.35;4.95;;;;;;;18.10;96.12;98133.63;2078665;85;20978;-83
2022/07/26 01:03:29;;;;;;;6.40;5.17;;;;;;;18.09;97.28;98135.20;2069334;85;21513;-82
2022/07/26 01:06:30;;;;;;;5.30;4.90;;;;;;;18.08;96.76;98134.92;2069797;85;21041;-83
2022/07/26 01:09:31;;;;;;;6.87;5.45;;;;;;;18.11;97.91;98135.78;2050613;86;21022;-84
2022/07/26 01:12:32;;;;;;;6.62;5.83;;;;;;;18.09;96.82;98133.87;2051319;86;21062;-84
2022/07/26 01:15:32;;;;;;;5.87;4.83;;;;;;;18.06;97.01;98136.49;2066067;86;20970;-84
2022/07/26 01:18:33;;;;;;;5.55;5.05;;;;;;;18.01;97.01;98125.80;2080784;85;21039;-84
2022/07/26 01:21:34;;;;;;;5.35;4.85;;;;;;;17.99;98.06;98117.30;2055207;85;21018;-84
2022/07/26 01:24:34;;;;;;;7.50;5.45;;;;;;;17.99;97.52;98113.33;2050944;86;21529;-84
2022/07/26 01:27:38;;;;;;;5.20;4.75;;;;;;;17.99;98.05;98106.70;2064693;86;21510;-85
2022/07/26 01:30:38;;;;;;;6.25;5.35;;;;;;;18.01;98.57;98103.81;2066471;86;21457;-83
2022/07/26 01:33:38;;;;;;;5.22;4.83;;;;;;;18.03;98.38;98101.75;2062312;85;21057;-84
2022/07/26 01:36:39;;;;;;;6.20;4.95;;;;;;;18.05;98.75;98096.48;2064416;85;20998;-84
2022/07/26 01:39:40;;;;;;;5.83;5.33;;;;;;;18.06;98.25;98086.69;2060606;85;20990;-85
2022/07/26 01:42:40;;;;;;;5.92;5.42;;;;;;;18.03;98.39;98089.31;2051369;86;21037;-84
2022/07/26 01:45:41;;;;;;;5.75;5.08;;;;;;;18.00;99.01;98082.34;2054581;86;20943;-84
2022/07/26 01:48:42;;;;;;;5.42;4.78;;;;;;;17.90;99.23;98070.56;2065951;86;21683;-84
2022/07/26 01:51:42;;;;;;;5.12;4.72;;;;;;;17.87;99.82;98070.25;2070047;85;21073;-84
2022/07/26 01:54:43;;;;;;;5.28;4.78;;;;;;;17.87;99.70;98068.92;2064369;85;21026;-84
2022/07/26 01:57:44;;;;;;;5.60;5.10;;;;;;;17.83;100.00;98059.84;2076747;85;22049;-84
2022/07/26 02:00:44;;;;;;;7.17;5.75;;;;;;;17.82;100.00;98055.08;2051354;86;21037;-84
2022/07/26 02:03:45;;;;;;;5.03;4.53;;;;;;;17.74;100.00;98055.50;2070006;86;20974;-84
2022/07/26 02:06:46;;;;;;;6.05;5.55;;;;;;;17.70;100.00;98058.34;2053363;85;21320;-84
2022/07/26 02:09:46;;;;;;;5.85;5.37;;;;;;;17.70;100.00;98058.34;2089727;84;21073;-84
2022/07/26 02:12:47;;;;;;;6.30;5.70;;;;;;;17.66;100.00;98060.37;2064023;85;21050;-84
2022/07/26 02:15:48;;;;;;;6.05;5.65;;;;;;;17.59;100.00;98052.05;2049105;85;20982;-84
2022/07/26 02:18:48;;;;;;;6.40;5.90;;;;;;;17.56;100.00;98060.48;2048820;86;21029;-84
2022/07/26 02:21:49;;;;;;;5.67;5.17;;;;;;;17.55;100.00;98062.83;2042745;86;21017;-84
2022/07/26 02:24:50;;;;;;;6.12;5.45;;;;;;;17.55;100.00;98061.50;2048293;86;21125;-85
2022/07/26 02:27:51;;;;;;;5.90;5.40;;;;;;;17.54;100.00;98059.89;2049504;86;21571;-85
2022/07/26 02:30:51;;;;;;;6.40;5.85;;;;;;;17.55;100.00;98065.47;2050561;86;20977;-84
2022/07/26 02:33:52;;;;;;;5.65;5.25;;;;;;;17.56;100.00;98059.69;2044931;86;21020;-83
2022/07/26 02:36:53;;;;;;;7.12;5.28;;;;;;;17.51;100.00;98051.13;2043836;85;21034;-84
2022/07/26 02:39:53;;;;;;;6.00;5.58;;;;;;;17.44;100.00;98055.77;2043755;86;20975;-83
2022/07/26 02:42:54;;;;;;;7.10;5.83;;;;;;;17.37;100.00;98055.11;2028975;86;21040;-84
2022/07/26 02:45:55;;;;;;;5.85;5.28;;;;;;;17.35;100.00;98059.32;2058080;85;20977;-83
2022/07/26 02:48:55;;;;;;;6.55;5.95;;;;;;;17.33;100.00;98048.18;2079084;85;21541;-84
2022/07/26 02:51:56;;;;;;;6.62;6.15;;;;;;;17.29;100.00;98052.36;2046390;86;21009;-83
2022/07/26 02:54:57;;;;;;;7.80;6.05;;;;;;;17.26;100.00;98050.69;2050731;86;21038;-83
2022/07/26 02:57:58;;;;;;;6.85;6.15;;;;;;;17.26;100.00;98046.72;2043032;85;20966;-84
2022/07/26 03:00:58;;;;;;;6.55;5.92;;;;;;;17.27;100.00;98044.36;2093460;84;21453;-82
2022/07/26 03:03:59;;;;;;;6.33;5.83;;;;;;;17.26;100.00;98048.05;2106855;82;21022;-83
2022/07/26 03:07:00;;;;;;;6.20;5.70;;;;;;;17.20;100.00;98049.02;2086726;84;20943;-83
2022/07/26 03:10:00;;;;;;;6.35;5.85;;;;;;;17.17;100.00;98050.27;2099314;84;21524;-83
2022/07/26 03:13:01;;;;;;;6.67;5.87;;;;;;;17.14;100.00;98044.66;2104825;84;20959;-84
2022/07/26 03:16:01;;;;;;;6.42;5.92;;;;;;;17.11;100.00;98035.89;2097856;84;20962;-84
2022/07/26 03:19:03;;;;;;;6.40;5.90;;;;;;;17.11;100.00;98030.08;2074245;85;21695;-84
2022/07/26 03:22:04;;;;;;;5.95;5.45;;;;;;;17.17;100.00;98026.98;2097434;84;21030;-84
2022/07/26 03:25:05;;;;;;;6.20;5.70;;;;;;;17.20;100.00;98018.59;2104000;83;20990;-84
2022/07/26 03:28:06;;;;;;;6.97;6.28;;;;;;;17.30;100.00;98010.30;2108861;83;20970;-84
2022/07/26 03:31:06;;;;;;;7.10;6.42;;;;;;;17.54;100.00;98004.31;2082846;85;21001;-84
2022/07/26 03:34:07;;;;;;;7.50;6.45;;;;;;;17.72;100.00;98001.17;2092791;84;21105;-83
2022/07/26 03:37:07;;;;;;;7.85;6.22;;;;;;;17.90;100.00;98001.70;2089322;85;20955;-84
2022/07/26 03:40:08;;;;;;;8.45;7.65;;;;;;;18.17;100.00;98003.13;2113072;84;21029;-84
2022/07/26 03:43:08;;;;;;;7.08;6.35;;;;;;;18.58;100.00;97998.86;2111763;83;21042;-84
2022/07/26 03:46:09;;;;;;;6.85;6.03;;;;;;;18.98;100.00;97999.83;2047950;86;21000;-84
2022/07/26 03:49:10;;;;;;;6.22;5.80;;;;;;;19.32;100.00;97999.89;2037564;86;21006;-84
2022/07/26 03:52:10;;;;;;;6.45;5.70;;;;;;;19.82;100.00;97986.72;2043697;86;21012;-84
2022/07/26 03:58:30;;;;;;;6.50;5.40;;;;;;;20.69;97.42;97991.92;2049089;86;21120;-84
2022/07/26 04:01:31;;;;;;;4.92;4.53;;;;;;;21.18;95.06;97988.01;2027869;86;20994;-86
2022/07/26 04:04:31;;;;;;;5.50;5.10;;;;;;;21.58;91.27;97981.39;2037939;87;20977;-86
2022/07/26 04:07:32;;;;;;;5.40;4.33;;;;;;;22.07;86.54;97971.98;2042142;86;21018;-86
2022/07/26 04:10:33;;;;;;;4.53;4.22;;;;;;;22.43;83.92;97976.64;2038450;87;21074;-86
2022/07/26 04:13:34;;;;;;;6.03;4.67;;;;;;;22.79;78.87;97983.93;2039127;86;20935;-85
2022/07/26 04:16:35;;;;;;;4.95;4.47;;;;;;;23.03;78.65;97991.27;2039889;86;21088;-85
2022/07/26 04:19:35;;;;;;;4.45;4.15;;;;;;;23.41;75.39;97987.79;2050336;86;20957;-83
2022/07/26 04:22:36;;;;;;;4.90;4.50;;;;;;;23.80;72.10;97990.39;2050847;86;20991;-83
2022/07/26 04:25:36;;;;;;;5.15;3.83;;;;;;;24.18;69.29;97993.74;2021343;85;21005;-83
2022/07/26 04:28:37;;;;;;;4.53;4.12;;;;;;;24.47;65.74;97997.16;2052630;86;20999;-82
2022/07/26 04:31:38;;;;;;;4.40;4.10;;;;;;;24.65;63.85;97991.03;2027116;88;20969;-83
2022/07/26 04:34:38;;;;;;;4.10;3.90;;;;;;;24.95;61.17;97984.45;2055843;86;21072;-83
2022/07/26 04:37:39;;;;;;;4.10;3.90;;;;;;;25.08;61.37;97978.16;2023380;86;21048;-83
2022/07/26 04:40:40;;;;;;;4.55;4.25;;;;;;;25.39;58.67;97987.83;2037311;85;21153;-86
2022/07/26 04:43:40;;;;;;;4.42;4.03;;;;;;;25.46;56.48;97986.91;2031408;85;21018;-84
2022/07/26 04:46:41;;;;;;;6.67;3.75;;;;;;;25.78;56.45;97986.10;2052506;86;21508;-83
2022/07/26 04:49:41;;;;;;;4.30;4.00;;;;;;;25.81;55.80;97989.55;2030124;88;21058;-82
2022/07/26 04:52:42;;;;;;;5.10;4.67;;;;;;;26.08;55.57;97979.40;2030022;87;21017;-82
2022/07/26 04:55:43;;;;;;;4.10;3.80;;;;;;;26.25;54.46;97978.80;2047099;86;21109;-83
2022/07/26 04:58:44;;;;;;;4.33;3.62;;;;;;;26.63;52.75;97987.43;2041415;85;21617;-83
2022/07/26 05:01:44;;;;;;;4.15;3.72;;;;;;;26.91;52.81;97987.60;2031431;87;21049;-84
2022/07/26 05:04:45;;;;;;;4.97;3.95;;;;;;;27.15;51.88;97984.64;2013189;86;21009;-83
2022/07/26 05:07:46;;;;;;;4.60;4.30;;;;;;;27.15;50.71;97987.88;2009293;87;21723;-83
2022/07/26 05:10:46;;;;;;;4.35;4.00;;;;;;;27.04;49.62;97994.05;2021143;86;21062;-83
2022/07/26 05:13:47;;;;;;;4.35;4.05;;;;;;;27.06;50.05;97992.39;2041202;86;21493;-83
2022/07/26 05:16:48;;;;;;;4.50;3.95;;;;;;;27.12;49.24;97993.31;2061081;86;20997;-83
2022/07/26 05:19:48;;;;;;;3.95;3.58;;;;;;;26.89;49.26;97991.14;2047623;86;21519;-82
2022/07/26 05:22:49;;;;;;;4.58;4.17;;;;;;;26.86;50.00;97998.44;2050258;86;21033;-83
2022/07/26 05:25:50;;;;;;;4.05;3.75;;;;;;;26.70;50.09;97997.73;2027190;87;21021;-83
2022/07/26 05:28:50;;;;;;;4.33;4.03;;;;;;;26.72;50.20;97997.70;2047083;86;21025;-82
2022/07/26 05:31:51;;;;;;;4.28;3.98;;;;;;;26.67;50.29;98001.83;2054058;86;20962;-84
2022/07/26 05:34:51;;;;;;;5.00;4.60;;;;;;;26.81;50.24;97998.57;2058521;86;21128;-83
2022/07/26 05:37:52;;;;;;;5.22;4.83;;;;;;;26.84;50.65;97998.51;2037948;87;21078;-83
2022/07/26 05:40:53;;;;;;;4.70;4.40;;;;;;;26.76;50.57;97990.62;2032858;85;21087;-83
2022/07/26 05:43:53;;;;;;;4.62;4.33;;;;;;;26.45;50.56;97991.83;2073627;85;20999;-83
2022/07/26 05:46:54;;;;;;;4.28;4.00;;;;;;;26.23;51.28;97994.38;2114979;83;21025;-84
2022/07/26 05:49:55;;;;;;;4.45;4.15;;;;;;;26.17;51.73;97988.34;2105373;84;20974;-82
2022/07/26 05:52:55;;;;;;;3.90;3.60;;;;;;;25.99;52.34;97990.57;2094453;83;22172;-82
2022/07/26 05:55:56;;;;;;;5.78;4.47;;;;;;;25.82;53.10;97989.80;2096860;84;21025;-82
2022/07/26 05:58:57;;;;;;;11.10;4.90;;;;;;;25.72;53.99;97992.66;2093735;84;20957;-84
2022/07/26 06:01:57;;;;;;;4.30;4.00;;;;;;;25.69;54.55;97992.66;2105421;84;21053;-83
2022/07/26 06:04:58;;;;;;;8.25;4.25;;;;;;;25.65;54.94;97991.67;2091891;84;20993;-83
2022/07/26 06:07:59;;;;;;;4.53;4.08;;;;;;;25.71;55.62;97997.78;2094411;84;21007;-83
2022/07/26 06:10:59;;;;;;;4.58;4.08;;;;;;;25.75;55.80;97999.56;2096020;83;21005;-83
2022/07/26 06:14:00;;;;;;;5.20;4.75;;;;;;;25.79;56.17;97999.23;2097576;84;21101;-83
2022/07/26 06:17:03;;;;;;;4.35;3.83;;;;;;;25.86;56.54;98006.08;2097317;83;21058;-83
2022/07/26 06:20:03;;;;;;;5.15;4.72;;;;;;;25.97;56.61;98008.30;2088097;84;21045;-83
2022/07/26 06:23:04;;;;;;;5.10;4.50;;;;;;;26.05;56.25;98008.92;2096789;84;21078;-83
2022/07/26 06:26:05;;;;;;;5.83;4.60;;;;;;;26.11;55.88;98016.89;2120841;83;21513;-83
2022/07/26 06:29:05;;;;;;;5.05;4.65;;;;;;;26.21;55.68;98016.14;2091135;84;21454;-83
2022/07/26 06:32:06;;;;;;;6.97;4.80;;;;;;;26.31;55.77;98010.58;2097556;84;21014;-82
2022/07/26 06:35:07;;;;;;;5.40;5.00;;;;;;;26.54;55.72;98013.39;2112540;84;20978;-82
2022/07/26 06:38:07;;;;;;;7.12;5.08;;;;;;;26.69;55.33;98014.94;2119757;83;20955;-83
2022/07/26 06:41:08;;;;;;;5.42;4.92;;;;;;;26.83;54.56;98008.45;2121605;83;20990;-82
2022/07/26 06:44:08;;;;;;;5.12;4.65;;;;;;;26.94;54.10;98013.05;2099678;83;21529;-84
2022/07/26 06:47:09;;;;;;;13.65;5.55;;;;;;;27.06;53.90;98019.25;2111100;84;20987;-83
2022/07/26 06:50:10;;;;;;;11.90;5.03;;;;;;;27.21;53.52;98024.28;2100764;83;21149;-83
2022/07/26 06:53:11;;;;;;;6.05;4.35;;;;;;;27.25;53.56;98020.42;2097775;83;21010;-83
2022/07/26 06:56:13;;;;;;;5.08;4.40;;;;;;;27.41;53.65;98032.41;2104952;84;21507;-83
2022/07/26 06:59:14;;;;;;;4.47;4.17;;;;;;;27.68;53.02;98022.89;2119069;83;22112;-83
2022/07/26 07:02:14;;;;;;;5.25;4.70;;;;;;;27.96;52.01;98024.86;2105617;84;21037;-82
2022/07/26 07:05:15;;;;;;;5.55;5.05;;;;;;;28.12;51.52;98023.91;2093421;84;21533;-82
2022/07/26 07:08:16;;;;;;;5.47;4.97;;;;;;;28.25;49.90;98037.80;2085152;83;21363;-82
2022/07/26 07:11:16;;;;;;;4.78;4.47;;;;;;;28.38;50.34;98038.84;2105187;83;21046;-83
2022/07/26 07:14:19;;;;;;;5.72;5.22;;;;;;;28.48;49.31;98040.45;2093720;84;21060;-83
2022/07/26 07:17:19;;;;;;;6.33;5.83;;;;;;;28.52;49.02;98047.58;2098009;84;21322;-84
2022/07/26 07:20:20;;;;;;;5.92;5.35;;;;;;;28.48;47.94;98052.02;2101794;83;21102;-82
2022/07/26 07:23:23;;;;;;;6.55;4.92;;;;;;;28.43;47.43;98050.80;2101420;84;21088;-87
2022/07/26 07:26:24;;;;;;;5.55;5.03;;;;;;;28.40;46.77;98052.77;2099698;83;21554;-85
2022/07/26 07:29:24;;;;;;;6.45;5.83;;;;;;;28.26;45.91;98060.15;2090744;84;21117;-84
2022/07/26 07:32:25;;;;;;;6.47;5.85;;;;;;;27.96;46.17;98062.52;2109453;84;20990;-86
2022/07/26 07:35:26;;;;;;;7.42;5.20;;;;;;;27.90;46.89;98071.05;2098262;83;21002;-85
2022/07/26 07:38:26;;;;;;;15.93;6.40;;;;;;;27.82;47.03;98066.41;2114088;82;21074;-90
2022/07/26 07:41:27;;;;;;;6.53;5.65;;;;;;;27.82;46.77;98054.31;2121682;83;21505;-89
2022/07/26 07:44:28;;;;;;;6.92;5.67;;;;;;;27.76;45.37;98053.08;2105082;84;21083;-86
2022/07/26 07:47:28;;;;;;;8.50;5.17;;;;;;;27.54;46.65;98061.14;2088068;84;21029;-86
2022/07/26 07:50:29;;;;;;;6.22;5.37;;;;;;;27.44;46.82;98077.52;2117252;82;20978;-85
2022/07/26 07:53:29;;;;;;;9.88;6.10;;;;;;;27.27;46.93;98076.03;2121768;83;21023;-85
2022/07/26 07:56:30;;;;;;;8.35;5.67;;;;;;;27.15;46.82;98085.39;2121632;83;21049;-85
2022/07/26 07:59:31;;;;;;;6.15;5.20;;;;;;;26.98;47.18;98084.44;2116738;82;21003;-91
2022/07/26 08:02:31;;;;;;;6.67;5.87;;;;;;;26.86;47.37;98101.05;2118344;83;20974;-86
2022/07/26 08:05:32;;;;;;;5.87;5.30;;;;;;;26.84;47.86;98100.01;2121551;83;21005;-85
2022/07/26 08:08:33;;;;;;;6.80;5.55;;;;;;;26.81;48.64;98101.95;2119729;83;21010;-85
2022/07/26 08:11:33;;;;;;;13.48;6.03;;;;;;;26.77;48.52;98106.87;2121788;82;21394;-89
2022/07/26 08:14:34;;;;;;;10.32;5.78;;;;;;;26.57;48.51;98094.66;2117367;83;21005;-85
2022/07/26 08:17:35;;;;;;;7.70;6.03;;;;;;;26.44;48.59;98105.64;2116114;83;20999;-84
2022/07/26 08:20:36;;;;;;;7.80;5.80;;;;;;;26.41;49.17;98109.45;2103947;83;20973;-85
2022/07/26 08:23:36;;;;;;;7.05;5.42;;;;;;;26.32;49.11;98122.73;2088192;83;21065;-84
2022/07/26 08:26:37;;;;;;;6.58;5.80;;;;;;;26.36;49.32;98117.83;2092754;83;21061;-86
2022/07/26 08:29:38;;;;;;;6.35;5.75;;;;;;;26.44;49.99;98108.88;2103176;83;21098;-86
2022/07/26 08:32:38;;;;;;;8.35;5.40;;;;;;;26.49;50.07;98124.87;2110078;83;21035;-86
2022/07/26 08:35:39;;;;;;;6.22;5.65;;;;;;;26.60;50.05;98128.94;2113465;82;21129;-86
2022/07/26 08:38:40;;;;;;;7.70;5.92;;;;;;;26.55;49.53;98137.11;2107010;83;22167;-87
2022/07/26 08:41:41;;;;;;;6.25;5.22;;;;;;;26.56;49.82;98137.36;2125157;84;21006;-83
2022/07/26 08:44:42;;;;;;;5.45;4.87;;;;;;;26.75;50.08;98134.02;2116236;82;21079;-86
2022/07/26 08:47:43;;;;;;;9.35;6.10;;;;;;;26.83;49.31;98141.94;2115089;82;21580;-87
2022/07/26 08:50:44;;;;;;;7.53;5.65;;;;;;;27.09;49.00;98143.59;2116477;82;21005;-87
2022/07/26 08:53:45;;;;;;;9.05;5.75;;;;;;;27.09;49.00;98143.59;2109870;82;21021;-85
2022/07/26 08:56:45;;;;;;;5.85;4.78;;;;;;;27.25;48.84;98139.48;2104372;82;21062;-87
2022/07/26 08:59:46;;;;;;;6.97;5.65;;;;;;;27.39;48.50;98150.19;2119883;84;21045;-86
2022/07/26 09:02:47;;;;;;;6.15;5.55;;;;;;;27.46;48.07;98149.23;2120557;82;21028;-86
2022/07/26 09:05:48;;;;;;;7.00;5.67;;;;;;;27.48;48.01;98153.20;2117931;84;21002;-86
2022/07/26 09:08:49;;;;;;;5.20;4.80;;;;;;;27.48;47.97;98153.20;2120906;84;21041;-86
2022/07/26 09:11:49;;;;;;;5.80;5.10;;;;;;;27.43;47.36;98161.91;2118909;84;21462;-86
2022/07/26 09:14:50;;;;;;;15.63;5.92;;;;;;;27.32;47.60;98160.55;2118464;84;21105;-87
2022/07/26 09:17:51;;;;;;;6.37;5.08;;;;;;;27.44;47.89;98172.94;2106529;83;21038;-86
2022/07/26 09:20:52;;;;;;;5.97;5.47;;;;;;;27.42;47.07;98167.84;2111011;82;21029;-85
2022/07/26 09:23:52;;;;;;;6.03;5.47;;;;;;;27.48;47.54;98188.70;2119811;83;21145;-89
2022/07/26 09:26:53;;;;;;;9.55;5.40;;;;;;;27.53;47.90;98187.80;2113069;83;21511;-87
2022/07/26 09:29:56;;;;;;;7.58;5.40;;;;;;;27.67;47.93;98189.92;2120288;84;21053;-87
2022/07/26 17:26:36;;;;;;;14.40;8.55;;;;;;;20.88;100.00;98443.23;2260279;79;22117;-83
2022/07/26 17:29:37;;;;;;;11.78;8.58;;;;;;;20.83;100.00;98443.17;2227333;80;21520;-82
2022/07/26 17:32:37;;;;;;;11.95;8.38;;;;;;;20.79;100.00;98451.39;2227286;80;21156;-82
2022/07/26 17:35:38;;;;;;;9.63;8.75;;;;;;;20.74;100.00;98455.32;2227215;80;21024;-84
2022/07/26 17:38:41;;;;;;;13.85;12.35;;;;;;;20.70;100.00;98456.89;2227165;80;21016;-83
2022/07/26 17:41:43;;;;;;;10.15;8.78;;;;;;;20.70;100.00;98460.35;2227215;80;20989;-83
2022/07/26 17:44:44;;;;;;;11.48;8.70;;;;;;;20.70;100.00;98463.02;2227184;80;21009;-82
2022/07/26 17:47:45;;;;;;;21.35;12.47;;;;;;;20.71;100.00;98445.99;2227080;80;21570;-82
2022/07/26 17:50:46;;;;;;;14.28;10.93;;;;;;;20.67;100.00;98450.75;2227099;80;20949;-82
2022/07/26 17:53:47;;;;;;;14.70;8.80;;;;;;;20.65;100.00;98457.62;2227105;80;21055;-85
2022/07/26 17:56:48;;;;;;;10.98;9.10;;;;;;;20.59;100.00;98453.86;2230491;80;21000;-82
2022/07/26 17:59:48;;;;;;;9.90;8.85;;;;;;;20.52;100.00;98457.23;2229151;80;21005;-84
2022/07/26 18:02:49;;;;;;;9.28;8.38;;;;;;;20.45;100.00;98450.24;2227109;80;20961;-83
2022/07/26 18:05:50;;;;;;;10.23;8.90;;;;;;;20.40;100.00;98448.05;2227024;80;20992;-83
2022/07/26 18:08:51;;;;;;;11.22;8.95;;;;;;;20.42;100.00;98453.37;2227176;80;21550;-83
2022/07/26 18:11:51;;;;;;;11.73;8.58;;;;;;;20.44;100.00;98449.17;2227980;80;21480;-84
2022/07/26 18:14:52;;;;;;;9.95;8.28;;;;;;;20.40;100.00;98458.68;2232089;80;21048;-83
2022/07/26 18:17:53;;;;;;;10.72;9.30;;;;;;;20.37;100.00;98461.28;2227222;80;20961;-84
2022/07/26 18:20:54;;;;;;;26.85;10.48;;;;;;;20.33;100.00;98458.86;2227077;80;20977;-83
2022/07/26 18:23:54;;;;;;;16.42;11.03;;;;;;;20.30;100.00;98451.39;2226788;80;20988;-84
2022/07/26 18:26:57;;;;;;;14.78;9.80;;;;;;;20.15;100.00;98451.20;2220763;80;20965;-83
2022/07/26 18:29:57;;;;;;;13.10;11.10;;;;;;;20.10;100.00;98454.59;2221140;80;21021;-84
2022/07/26 18:32:58;;;;;;;11.97;10.28;;;;;;;20.07;100.00;98449.78;2221093;80;21001;-82
2022/07/26 18:36:00;;;;;;;10.63;9.53;;;;;;;20.02;100.00;98446.23;2220860;80;20970;-81
2022/07/26 18:39:01;;;;;;;10.32;9.03;;;;;;;19.96;100.00;98452.03;2220227;80;21035;-83
2022/07/26 18:42:01;;;;;;;11.12;9.28;;;;;;;19.83;100.00;98456.36;2220239;80;20954;-84
2022/07/26 18:45:02;;;;;;;15.98;10.88;;;;;;;19.76;100.00;98459.73;2220768;80;20993;-82
2022/07/26 18:48:03;;;;;;;9.83;8.83;;;;;;;19.70;100.00;98468.15;2221722;80;21480;-82
2022/07/26 18:51:04;;;;;;;12.82;9.55;;;;;;;19.65;100.00;98471.25;2221252;80;20961;-83
2022/07/26 18:54:04;;;;;;;12.58;11.18;;;;;;;19.57;100.00;98474.62;2221592;80;20989;-83
2022/07/26 18:57:05;;;;;;;12.13;10.63;;;;;;;19.52;100.00;98475.02;2220748;80;20967;-84
2022/07/26 19:00:06;;;;;;;11.30;9.18;;;;;;;19.45;100.00;98475.18;2220228;80;21023;-83
2022/07/26 19:03:07;;;;;;;9.75;8.75;;;;;;;19.36;100.00;98477.16;2220308;80;21044;-83
2022/07/26 19:06:10;;;;;;;15.05;11.12;;;;;;;19.28;100.00;98479.16;2220245;80;20930;-83
2022/07/26 19:09:10;;;;;;;13.88;12.37;;;;;;;19.21;100.00;98484.37;2220298;80;21060;-83
2022/07/26 19:12:11;;;;;;;13.13;11.83;;;;;;;19.16;100.00;98485.59;2219963;80;21005;-82
2022/07/26 19:15:12;;;;;;;13.48;12.03;;;;;;;19.07;100.00;98484.38;2220173;80;20970;-84
2022/07/26 19:18:14;;;;;;;15.32;11.15;;;;;;;18.99;100.00;98483.73;2220037;80;21088;-82
2022/07/26 19:21:15;;;;;;;16.35;12.93;;;;;;;18.92;100.00;98480.41;2220258;80;21081;-84
2022/07/26 19:24:15;;;;;;;22.27;13.05;;;;;;;18.89;100.00;98481.42;2220115;80;20954;-83
2022/07/26 19:27:16;;;;;;;16.85;12.43;;;;;;;18.85;100.00;98485.09;2219810;80;21539;-82
2022/07/26 19:30:17;;;;;;;16.30;13.15;;;;;;;18.80;100.00;98481.00;2219843;80;21001;-83
2022/07/26 19:33:18;;;;;;;17.10;13.72;;;;;;;18.75;100.00;98482.25;2219743;80;20993;-83
2022/07/26 19:36:18;;;;;;;23.47;14.58;;;;;;;18.73;100.00;98477.69;2219748;80;21012;-83
2022/07/26 19:39:19;;;;;;;18.70;14.18;;;;;;;18.68;100.00;98475.77;2219767;80;20997;-83
2022/07/26 19:42:20;;;;;;;21.68;13.72;;;;;;;18.62;100.00;98479.31;2219792;80;21013;-83
2022/07/26 19:45:21;;;;;;;21.75;14.63;;;;;;;18.58;100.00;98474.74;2219990;80;21017;-82
2022/07/26 19:48:21;;;;;;;23.52;15.43;;;;;;;18.54;100.00;98479.69;2219821;80;21017;-83
2022/07/26 19:51:22;;;;;;;23.07;16.30;;;;;;;18.54;100.00;98484.19;2220026;80;21017;-84
2022/07/26 19:54:23;;;;;;;19.67;15.23;;;;;;;18.50;100.00;98484.39;2219843;80;21052;-84
2022/07/26 19:57:24;;;;;;;18.98;15.13;;;;;;;18.47;100.00;98480.38;2219346;80;21020;-83
2022/07/26 20:00:25;;;;;;;21.27;14.43;;;;;;;18.42;100.00;98486.89;2219681;80;21563;-83
2022/07/26 20:03:26;;;;;;;17.90;14.95;;;;;;;18.38;100.00;98486.56;2219935;80;21436;-83
2022/07/26 20:06:27;;;;;;;24.37;16.60;;;;;;;18.37;100.00;98484.13;2219611;80;21013;-82
2022/07/26 20:09:28;;;;;;;20.40;17.32;;;;;;;18.33;100.00;98493.08;2220003;80;20996;-83
2022/07/26 20:12:29;;;;;;;19.70;16.30;;;;;;;18.27;100.00;98492.68;2220326;80;21001;-82
2022/07/26 20:15:30;;;;;;;20.48;16.35;;;;;;;18.22;100.00;98496.56;2220856;80;20964;-82
2022/07/26 20:18:31;;;;;;;19.15;15.35;;;;;;;18.17;100.00;98496.45;2220920;80;21055;-82
2022/07/26 20:21:32;;;;;;;16.77;14.75;;;;;;;18.12;100.00;98497.69;2221679;80;20962;-82
2022/07/26 20:24:33;;;;;;;18.10;14.30;;;;;;;18.10;100.00;98508.48;2219095;80;21056;-82
2022/07/26 20:27:34;;;;;;;15.08;13.45;;;;;;;18.06;100.00;98508.69;2209610;81;21011;-83
2022/07/26 20:30:34;;;;;;;18.25;13.70;;;;;;;18.04;100.00;98504.66;2209681;81;21012;-80
2022/07/26 20:33:35;;;;;;;17.73;13.05;;;;;;;17.97;100.00;98502.13;2211994;81;20993;-80
2022/07/26 20:36:36;;;;;;;14.90;13.15;;;;;;;17.91;100.00;98501.72;2210130;81;21018;-83
2022/07/26 20:39:37;;;;;;;13.95;12.60;;;;;;;17.85;100.00;98510.09;2209570;81;21510;-83
2022/07/26 20:42:37;;;;;;;18.40;14.38;;;;;;;17.82;100.00;98511.86;2209582;81;20973;-83
2022/07/26 20:45:38;;;;;;;15.00;13.22;;;;;;;17.79;100.00;98516.82;2209520;81;21024;-83
2022/07/26 20:48:39;;;;;;;16.02;14.23;;;;;;;17.76;100.00;98503.53;2209356;81;21056;-83
2022/07/26 20:51:40;;;;;;;15.50;13.65;;;;;;;17.73;100.00;98503.97;2209584;81;20966;-83
2022/07/26 20:54:40;;;;;;;22.50;15.55;;;;;;;17.71;100.00;98503.92;2209149;81;21025;-83
2022/07/26 20:57:41;;;;;;;16.85;15.08;;;;;;;17.68;100.00;98505.17;2209559;81;20974;-82
2022/07/26 21:00:42;;;;;;;16.87;15.15;;;;;;;17.64;100.00;98509.30;2209431;81;21277;-84
2022/07/26 21:03:43;;;;;;;19.85;15.48;;;;;;;17.61;100.00;98513.22;2209480;81;21044;-83
2022/07/26 21:06:44;;;;;;;17.65;14.93;;;;;;;17.58;100.00;98505.73;2209559;81;21495;-85
2022/07/26 21:09:44;;;;;;;20.40;17.70;;;;;;;17.57;100.00;98509.95;2209442;81;21013;-84
2022/07/26 21:12:45;;;;;;;24.63;18.45;;;;;;;17.54;100.00;98503.77;2209460;81;20959;-84
2022/07/26 21:15:46;;;;;;;23.67;20.72;;;;;;;17.52;100.00;98513.78;2210114;81;21474;-85
2022/07/26 21:18:47;;;;;;;21.82;18.95;;;;;;;17.49;100.00;98511.09;2208984;81;20973;-83
2022/07/26 21:21:47;;;;;;;20.10;17.45;;;;;;;17.48;100.00;98513.97;2216761;80;21003;-83
2022/07/26 21:24:48;;;;;;;20.20;17.32;;;;;;;17.46;100.00;98519.98;2217047;80;21079;-84
2022/07/26 21:27:49;;;;;;;21.75;16.42;;;;;;;17.42;100.00;98515.67;2216915;80;21085;-83
2022/07/26 21:30:50;;;;;;;19.40;17.32;;;;;;;17.37;100.00;98522.16;2216381;80;20962;-85
2022/07/26 21:33:50;;;;;;;17.42;15.50;;;;;;;17.31;100.00;98519.11;2216490;80;21024;-83
2022/07/26 21:36:51;;;;;;;21.97;16.85;;;;;;;17.26;100.00;98523.75;2216475;80;20984;-84
2022/07/26 21:39:52;;;;;;;20.70;16.10;;;;;;;17.24;100.00;98525.82;2216239;80;20941;-84
2022/07/26 21:42:53;;;;;;;21.48;17.85;;;;;;;17.19;100.00;98527.03;2216325;80;21519;-83
2022/07/26 21:45:53;;;;;;;20.43;18.00;;;;;;;17.16;100.00;98528.79;2216354;80;21569;-84
2022/07/26 21:48:54;;;;;;;21.95;18.35;;;;;;;17.14;100.00;98527.41;2216385;80;21024;-83
2022/07/26 21:51:55;;;;;;;22.73;20.05;;;;;;;17.13;100.00;98523.16;2216930;80;20961;-83
2022/07/26 21:54:56;;;;;;;22.50;18.75;;;;;;;17.08;100.00;98524.33;2216126;80;21040;-83